DTTZ/TOE METAR and TAF weather

Enter ICAO airport designator
Station Type Date Time Source
DTTZ METAR 2019/06/16 07:00 UTC NOAA

DTTZ 160700Z 10015KT CAVOK 28/13 Q1013 NOSIG


Station Type Date Time Source
DTTZ Decoded METAR 2019/06/16 07:00 UTC NOAA

Tozeur, Tunisia (DTTZ) 33-55N 008-06E 93M
Jun 16, 2019 - 03:00 AM EDT / 2019.06.16 0700 UTC
Wind: from the E (100 degrees) at 17 MPH (15 KT):0
Visibility: greater than 7 mile(s):0
Temperature: 82 F (28 C)
Dew Point: 55 F (13 C)
Relative Humidity: 39%
Pressure (altimeter): 29.91 in. Hg (1013 hPa)
ob: DTTZ 160700Z 10015KT CAVOK 28/13 Q1013 NOSIG
cycle: 7

Station Type Date Time Source
DTTZ TAF 2019/06/16 06:50 UTC NOAA

TAF DTTZ 160500Z 1606/1706 10005KT 8000 NSC
BECMG 1607/1609 10015KT PROB40
TEMPO 1616/1624 10020G30KT 4000 SA

Example: see airport list